sensor_id;sensor_type;location;lat;lon;timestamp;P1;durP1;ratioP1;P2;durP2;ratioP2
27424;SDS011;15244;49.088;11.886;2024-01-25T00:00:20;11.07;;;3.65;;
27424;SDS011;15244;49.088;11.886;2024-01-25T00:05:24;11.73;;;3.35;;
27424;SDS011;15244;49.088;11.886;2024-01-25T00:10:26;15.35;;;4.07;;
27424;SDS011;15244;49.088;11.886;2024-01-25T00:15:30;17.23;;;2.90;;
27424;SDS011;15244;49.088;11.886;2024-01-25T00:20:32;12.93;;;2.97;;
27424;SDS011;15244;49.088;11.886;2024-01-25T00:25:36;15.20;;;2.85;;
27424;SDS011;15244;49.088;11.886;2024-01-25T00:30:37;14.77;;;3.22;;
27424;SDS011;15244;49.088;11.886;2024-01-25T00:35:39;13.75;;;3.17;;
27424;SDS011;15244;49.088;11.886;2024-01-25T00:40:41;17.55;;;3.13;;
27424;SDS011;15244;49.088;11.886;2024-01-25T00:45:45;13.10;;;3.15;;
27424;SDS011;15244;49.088;11.886;2024-01-25T00:50:47;12.57;;;3.33;;
27424;SDS011;15244;49.088;11.886;2024-01-25T00:55:52;17.25;;;3.55;;
27424;SDS011;15244;49.088;11.886;2024-01-25T01:00:56;14.38;;;3.67;;
27424;SDS011;15244;49.088;11.886;2024-01-25T01:06:05;18.83;;;3.28;;
27424;SDS011;15244;49.088;11.886;2024-01-25T01:11:07;16.75;;;4.30;;
27424;SDS011;15244;49.088;11.886;2024-01-25T01:16:09;14.80;;;3.95;;
27424;SDS011;15244;49.088;11.886;2024-01-25T01:21:13;15.35;;;3.65;;
27424;SDS011;15244;49.088;11.886;2024-01-25T01:26:18;18.63;;;4.70;;
27424;SDS011;15244;49.088;11.886;2024-01-25T01:31:19;16.20;;;3.35;;
27424;SDS011;15244;49.088;11.886;2024-01-25T01:36:21;18.55;;;3.63;;
27424;SDS011;15244;49.088;11.886;2024-01-25T01:41:22;14.50;;;3.45;;
27424;SDS011;15244;49.088;11.886;2024-01-25T01:51:46;17.35;;;3.53;;
27424;SDS011;15244;49.088;11.886;2024-01-25T01:56:48;17.92;;;3.72;;
27424;SDS011;15244;49.088;11.886;2024-01-25T02:01:50;18.05;;;3.78;;
27424;SDS011;15244;49.088;11.886;2024-01-25T02:06:54;15.27;;;3.65;;
27424;SDS011;15244;49.088;11.886;2024-01-25T02:12:02;18.42;;;3.35;;
27424;SDS011;15244;49.088;11.886;2024-01-25T02:17:04;19.92;;;4.00;;
27424;SDS011;15244;49.088;11.886;2024-01-25T02:22:06;15.40;;;3.85;;
27424;SDS011;15244;49.088;11.886;2024-01-25T02:27:10;23.58;;;4.53;;
27424;SDS011;15244;49.088;11.886;2024-01-25T02:32:12;17.20;;;3.78;;
27424;SDS011;15244;49.088;11.886;2024-01-25T02:37:14;19.45;;;3.65;;
27424;SDS011;15244;49.088;11.886;2024-01-25T02:42:16;16.40;;;3.67;;
27424;SDS011;15244;49.088;11.886;2024-01-25T02:47:18;16.80;;;3.35;;
27424;SDS011;15244;49.088;11.886;2024-01-25T02:52:20;12.52;;;3.22;;
27424;SDS011;15244;49.088;11.886;2024-01-25T02:57:21;19.92;;;3.90;;
27424;SDS011;15244;49.088;11.886;2024-01-25T03:02:25;17.25;;;3.30;;
27424;SDS011;15244;49.088;11.886;2024-01-25T03:07:27;17.85;;;3.42;;
27424;SDS011;15244;49.088;11.886;2024-01-25T03:12:29;20.50;;;4.18;;
27424;SDS011;15244;49.088;11.886;2024-01-25T03:17:38;19.05;;;3.85;;
27424;SDS011;15244;49.088;11.886;2024-01-25T03:22:39;14.00;;;3.22;;
27424;SDS011;15244;49.088;11.886;2024-01-25T03:27:48;19.63;;;4.75;;
27424;SDS011;15244;49.088;11.886;2024-01-25T03:32:50;19.42;;;4.70;;
27424;SDS011;15244;49.088;11.886;2024-01-25T03:37:52;17.27;;;3.42;;
27424;SDS011;15244;49.088;11.886;2024-01-25T03:42:53;19.58;;;3.92;;
27424;SDS011;15244;49.088;11.886;2024-01-25T03:48:15;18.88;;;3.58;;
27424;SDS011;15244;49.088;11.886;2024-01-25T03:53:18;18.60;;;4.55;;
27424;SDS011;15244;49.088;11.886;2024-01-25T03:58:20;17.20;;;3.72;;
27424;SDS011;15244;49.088;11.886;2024-01-25T04:03:22;14.50;;;3.22;;
27424;SDS011;15244;49.088;11.886;2024-01-25T04:08:26;14.23;;;3.42;;
27424;SDS011;15244;49.088;11.886;2024-01-25T04:13:31;22.43;;;3.97;;
27424;SDS011;15244;49.088;11.886;2024-01-25T04:18:32;13.15;;;3.38;;
27424;SDS011;15244;49.088;11.886;2024-01-25T04:23:34;17.92;;;3.90;;
27424;SDS011;15244;49.088;11.886;2024-01-25T04:28:38;23.33;;;3.58;;
27424;SDS011;15244;49.088;11.886;2024-01-25T04:33:42;19.77;;;3.60;;
27424;SDS011;15244;49.088;11.886;2024-01-25T04:38:57;16.70;;;3.80;;
27424;SDS011;15244;49.088;11.886;2024-01-25T04:43:58;12.10;;;3.03;;
27424;SDS011;15244;49.088;11.886;2024-01-25T04:49:00;19.52;;;3.70;;
27424;SDS011;15244;49.088;11.886;2024-01-25T04:54:22;19.60;;;3.97;;
27424;SDS011;15244;49.088;11.886;2024-01-25T04:59:23;15.15;;;3.28;;
27424;SDS011;15244;49.088;11.886;2024-01-25T05:04:28;12.35;;;3.42;;
27424;SDS011;15244;49.088;11.886;2024-01-25T05:09:37;16.30;;;3.00;;
27424;SDS011;15244;49.088;11.886;2024-01-25T05:14:38;13.52;;;3.67;;
27424;SDS011;15244;49.088;11.886;2024-01-25T05:19:42;12.70;;;3.17;;
27424;SDS011;15244;49.088;11.886;2024-01-25T05:24:44;19.33;;;3.45;;
27424;SDS011;15244;49.088;11.886;2024-01-25T05:29:48;16.98;;;3.65;;
27424;SDS011;15244;49.088;11.886;2024-01-25T05:34:50;16.67;;;3.28;;
27424;SDS011;15244;49.088;11.886;2024-01-25T05:39:52;19.40;;;3.85;;
27424;SDS011;15244;49.088;11.886;2024-01-25T05:44:56;20.08;;;3.95;;
27424;SDS011;15244;49.088;11.886;2024-01-25T05:49:57;21.98;;;3.70;;
27424;SDS011;15244;49.088;11.886;2024-01-25T05:55:03;14.55;;;3.10;;
27424;SDS011;15244;49.088;11.886;2024-01-25T06:00:06;18.73;;;3.35;;
27424;SDS011;15244;49.088;11.886;2024-01-25T06:05:09;16.30;;;3.30;;
27424;SDS011;15244;49.088;11.886;2024-01-25T06:10:11;18.23;;;3.60;;
27424;SDS011;15244;49.088;11.886;2024-01-25T06:15:12;17.95;;;3.58;;
27424;SDS011;15244;49.088;11.886;2024-01-25T06:20:16;17.33;;;4.65;;
27424;SDS011;15244;49.088;11.886;2024-01-25T06:25:19;17.40;;;3.80;;
27424;SDS011;15244;49.088;11.886;2024-01-25T06:30:23;17.20;;;4.10;;
27424;SDS011;15244;49.088;11.886;2024-01-25T06:35:25;15.82;;;3.85;;
27424;SDS011;15244;49.088;11.886;2024-01-25T06:40:27;17.98;;;3.75;;
27424;SDS011;15244;49.088;11.886;2024-01-25T06:45:29;21.40;;;3.53;;
27424;SDS011;15244;49.088;11.886;2024-01-25T06:50:33;15.07;;;3.65;;
27424;SDS011;15244;49.088;11.886;2024-01-25T06:55:35;19.88;;;3.85;;
27424;SDS011;15244;49.088;11.886;2024-01-25T07:00:37;20.83;;;4.22;;
27424;SDS011;15244;49.088;11.886;2024-01-25T07:05:40;23.30;;;4.30;;
27424;SDS011;15244;49.088;11.886;2024-01-25T07:10:42;15.38;;;3.90;;
27424;SDS011;15244;49.088;11.886;2024-01-25T07:15:48;17.10;;;3.13;;
27424;SDS011;15244;49.088;11.886;2024-01-25T07:20:52;13.00;;;3.13;;
27424;SDS011;15244;49.088;11.886;2024-01-25T07:25:53;20.75;;;4.03;;
27424;SDS011;15244;49.088;11.886;2024-01-25T07:30:55;9.80;;;2.85;;
27424;SDS011;15244;49.088;11.886;2024-01-25T07:35:57;14.07;;;2.92;;
27424;SDS011;15244;49.088;11.886;2024-01-25T07:41:07;19.52;;;3.70;;
27424;SDS011;15244;49.088;11.886;2024-01-25T07:46:09;19.75;;;3.38;;
27424;SDS011;15244;49.088;11.886;2024-01-25T07:51:16;14.35;;;3.45;;
27424;SDS011;15244;49.088;11.886;2024-01-25T07:56:18;20.00;;;4.50;;
27424;SDS011;15244;49.088;11.886;2024-01-25T08:01:22;24.52;;;4.32;;
27424;SDS011;15244;49.088;11.886;2024-01-25T08:06:23;14.50;;;3.42;;
27424;SDS011;15244;49.088;11.886;2024-01-25T08:11:28;18.75;;;3.75;;
27424;SDS011;15244;49.088;11.886;2024-01-25T08:16:32;21.80;;;3.95;;
27424;SDS011;15244;49.088;11.886;2024-01-25T08:21:36;15.38;;;3.80;;
27424;SDS011;15244;49.088;11.886;2024-01-25T08:26:38;13.05;;;3.70;;
27424;SDS011;15244;49.088;11.886;2024-01-25T08:31:42;17.33;;;4.10;;
27424;SDS011;15244;49.088;11.886;2024-01-25T08:36:46;19.33;;;3.33;;
27424;SDS011;15244;49.088;11.886;2024-01-25T08:41:48;21.15;;;4.05;;
27424;SDS011;15244;49.088;11.886;2024-01-25T08:46:54;14.80;;;3.50;;
27424;SDS011;15244;49.088;11.886;2024-01-25T08:51:56;21.60;;;4.22;;
27424;SDS011;15244;49.088;11.886;2024-01-25T08:56:58;20.75;;;3.72;;
27424;SDS011;15244;49.088;11.886;2024-01-25T09:01:59;21.83;;;4.40;;
27424;SDS011;15244;49.088;11.886;2024-01-25T09:07:04;14.85;;;4.22;;
27424;SDS011;15244;49.088;11.886;2024-01-25T09:12:06;19.63;;;3.75;;
27424;SDS011;15244;49.088;11.886;2024-01-25T09:17:12;19.08;;;3.47;;
27424;SDS011;15244;49.088;11.886;2024-01-25T09:22:15;15.73;;;3.90;;
27424;SDS011;15244;49.088;11.886;2024-01-25T09:27:27;21.35;;;4.03;;
27424;SDS011;15244;49.088;11.886;2024-01-25T09:32:30;21.17;;;3.85;;
27424;SDS011;15244;49.088;11.886;2024-01-25T09:37:31;18.13;;;4.18;;
27424;SDS011;15244;49.088;11.886;2024-01-25T09:42:34;16.55;;;3.53;;
27424;SDS011;15244;49.088;11.886;2024-01-25T09:47:39;21.38;;;4.15;;
27424;SDS011;15244;49.088;11.886;2024-01-25T09:52:44;15.80;;;3.80;;
27424;SDS011;15244;49.088;11.886;2024-01-25T09:57:46;21.80;;;3.92;;
27424;SDS011;15244;49.088;11.886;2024-01-25T10:02:54;15.30;;;3.40;;
27424;SDS011;15244;49.088;11.886;2024-01-25T10:07:58;25.98;;;4.57;;
27424;SDS011;15244;49.088;11.886;2024-01-25T10:13:02;21.67;;;4.55;;
27424;SDS011;15244;49.088;11.886;2024-01-25T10:18:06;16.10;;;4.60;;
27424;SDS011;15244;49.088;11.886;2024-01-25T10:23:29;20.10;;;4.50;;
27424;SDS011;15244;49.088;11.886;2024-01-25T10:28:32;15.40;;;2.97;;
27424;SDS011;15244;49.088;11.886;2024-01-25T10:33:34;17.77;;;4.13;;
27424;SDS011;15244;49.088;11.886;2024-01-25T10:38:42;16.15;;;3.72;;
27424;SDS011;15244;49.088;11.886;2024-01-25T10:43:46;17.70;;;4.28;;
27424;SDS011;15244;49.088;11.886;2024-01-25T10:48:50;11.15;;;3.30;;
27424;SDS011;15244;49.088;11.886;2024-01-25T10:53:53;15.70;;;3.63;;
27424;SDS011;15244;49.088;11.886;2024-01-25T10:58:56;13.02;;;3.90;;
27424;SDS011;15244;49.088;11.886;2024-01-25T11:04:01;20.10;;;3.88;;
27424;SDS011;15244;49.088;11.886;2024-01-25T11:09:20;10.63;;;2.90;;
27424;SDS011;15244;49.088;11.886;2024-01-25T11:14:24;16.25;;;3.70;;
27424;SDS011;15244;49.088;11.886;2024-01-25T11:19:29;20.88;;;3.78;;
27424;SDS011;15244;49.088;11.886;2024-01-25T11:24:38;18.95;;;4.38;;
27424;SDS011;15244;49.088;11.886;2024-01-25T11:29:42;16.10;;;3.60;;
27424;SDS011;15244;49.088;11.886;2024-01-25T11:34:44;15.32;;;3.83;;
27424;SDS011;15244;49.088;11.886;2024-01-25T11:39:46;14.38;;;3.65;;
27424;SDS011;15244;49.088;11.886;2024-01-25T11:49:57;13.25;;;3.42;;
27424;SDS011;15244;49.088;11.886;2024-01-25T11:55:02;16.45;;;3.63;;
27424;SDS011;15244;49.088;11.886;2024-01-25T12:00:13;15.75;;;3.58;;
27424;SDS011;15244;49.088;11.886;2024-01-25T12:05:16;11.98;;;3.63;;
27424;SDS011;15244;49.088;11.886;2024-01-25T12:10:18;18.08;;;4.07;;
27424;SDS011;15244;49.088;11.886;2024-01-25T12:15:20;8.57;;;2.90;;
27424;SDS011;15244;49.088;11.886;2024-01-25T12:20:21;19.05;;;3.85;;
27424;SDS011;15244;49.088;11.886;2024-01-25T12:25:23;14.35;;;3.55;;
27424;SDS011;15244;49.088;11.886;2024-01-25T12:30:25;11.93;;;3.35;;
27424;SDS011;15244;49.088;11.886;2024-01-25T12:35:26;13.43;;;3.83;;
27424;SDS011;15244;49.088;11.886;2024-01-25T12:40:28;10.02;;;3.60;;
27424;SDS011;15244;49.088;11.886;2024-01-25T12:45:30;10.27;;;3.20;;
27424;SDS011;15244;49.088;11.886;2024-01-25T12:50:32;14.45;;;3.30;;
27424;SDS011;15244;49.088;11.886;2024-01-25T12:55:37;15.98;;;3.78;;
27424;SDS011;15244;49.088;11.886;2024-01-25T13:00:39;14.30;;;3.42;;
27424;SDS011;15244;49.088;11.886;2024-01-25T13:05:41;13.02;;;3.70;;
27424;SDS011;15244;49.088;11.886;2024-01-25T13:10:48;8.25;;;2.10;;
27424;SDS011;15244;49.088;11.886;2024-01-25T13:15:52;12.73;;;3.15;;
27424;SDS011;15244;49.088;11.886;2024-01-25T13:21:00;18.87;;;3.60;;
27424;SDS011;15244;49.088;11.886;2024-01-25T13:26:03;15.80;;;3.38;;
27424;SDS011;15244;49.088;11.886;2024-01-25T13:31:08;11.82;;;3.78;;
27424;SDS011;15244;49.088;11.886;2024-01-25T13:36:11;18.65;;;3.72;;
27424;SDS011;15244;49.088;11.886;2024-01-25T13:41:15;20.38;;;3.65;;
27424;SDS011;15244;49.088;11.886;2024-01-25T13:46:18;12.98;;;3.45;;
27424;SDS011;15244;49.088;11.886;2024-01-25T13:51:22;12.60;;;3.10;;
27424;SDS011;15244;49.088;11.886;2024-01-25T13:56:26;14.25;;;3.38;;
27424;SDS011;15244;49.088;11.886;2024-01-25T14:01:30;11.50;;;3.22;;
27424;SDS011;15244;49.088;11.886;2024-01-25T14:06:32;14.32;;;2.88;;
27424;SDS011;15244;49.088;11.886;2024-01-25T14:11:38;9.88;;;3.03;;
27424;SDS011;15244;49.088;11.886;2024-01-25T14:16:40;13.68;;;4.28;;
27424;SDS011;15244;49.088;11.886;2024-01-25T14:21:42;18.30;;;4.43;;
27424;SDS011;15244;49.088;11.886;2024-01-25T14:26:44;13.77;;;3.38;;
27424;SDS011;15244;49.088;11.886;2024-01-25T14:31:47;12.30;;;3.30;;
27424;SDS011;15244;49.088;11.886;2024-01-25T14:36:48;21.48;;;3.22;;
27424;SDS011;15244;49.088;11.886;2024-01-25T14:41:52;16.48;;;3.17;;
27424;SDS011;15244;49.088;11.886;2024-01-25T14:46:56;12.70;;;3.20;;
27424;SDS011;15244;49.088;11.886;2024-01-25T14:52:00;11.40;;;3.20;;
27424;SDS011;15244;49.088;11.886;2024-01-25T14:57:02;9.40;;;3.25;;
27424;SDS011;15244;49.088;11.886;2024-01-25T15:02:04;13.15;;;3.33;;
27424;SDS011;15244;49.088;11.886;2024-01-25T15:07:13;11.45;;;3.08;;
27424;SDS011;15244;49.088;11.886;2024-01-25T15:12:15;14.35;;;3.70;;
27424;SDS011;15244;49.088;11.886;2024-01-25T15:17:22;10.88;;;2.80;;
27424;SDS011;15244;49.088;11.886;2024-01-25T15:22:25;14.32;;;2.70;;
27424;SDS011;15244;49.088;11.886;2024-01-25T15:27:30;12.00;;;3.38;;
27424;SDS011;15244;49.088;11.886;2024-01-25T15:32:33;11.38;;;2.65;;
27424;SDS011;15244;49.088;11.886;2024-01-25T15:37:35;12.60;;;2.95;;
27424;SDS011;15244;49.088;11.886;2024-01-25T15:42:42;14.00;;;3.20;;
27424;SDS011;15244;49.088;11.886;2024-01-25T15:47:55;10.43;;;3.50;;
27424;SDS011;15244;49.088;11.886;2024-01-25T15:52:58;13.10;;;3.40;;
27424;SDS011;15244;49.088;11.886;2024-01-25T15:58:00;10.20;;;3.08;;
27424;SDS011;15244;49.088;11.886;2024-01-25T16:03:04;30.05;;;13.55;;
27424;SDS011;15244;49.088;11.886;2024-01-25T16:08:08;30.50;;;11.52;;
27424;SDS011;15244;49.088;11.886;2024-01-25T16:13:10;14.95;;;5.75;;
27424;SDS011;15244;49.088;11.886;2024-01-25T16:18:12;18.10;;;4.93;;
27424;SDS011;15244;49.088;11.886;2024-01-25T16:23:16;11.80;;;3.58;;
27424;SDS011;15244;49.088;11.886;2024-01-25T16:28:17;18.52;;;4.10;;
27424;SDS011;15244;49.088;11.886;2024-01-25T16:33:21;13.07;;;3.88;;
27424;SDS011;15244;49.088;11.886;2024-01-25T16:38:24;22.63;;;4.78;;
27424;SDS011;15244;49.088;11.886;2024-01-25T16:43:30;12.90;;;2.88;;
27424;SDS011;15244;49.088;11.886;2024-01-25T16:48:35;16.25;;;3.63;;
27424;SDS011;15244;49.088;11.886;2024-01-25T16:53:45;15.60;;;4.10;;
27424;SDS011;15244;49.088;11.886;2024-01-25T16:58:46;11.40;;;3.55;;
27424;SDS011;15244;49.088;11.886;2024-01-25T17:03:48;11.38;;;3.40;;
27424;SDS011;15244;49.088;11.886;2024-01-25T17:08:49;14.63;;;4.10;;
27424;SDS011;15244;49.088;11.886;2024-01-25T17:13:51;10.15;;;2.75;;
27424;SDS011;15244;49.088;11.886;2024-01-25T17:18:55;17.90;;;3.55;;
27424;SDS011;15244;49.088;11.886;2024-01-25T17:24:01;15.60;;;3.45;;
27424;SDS011;15244;49.088;11.886;2024-01-25T17:29:03;15.75;;;3.85;;
27424;SDS011;15244;49.088;11.886;2024-01-25T17:34:05;12.02;;;3.60;;
27424;SDS011;15244;49.088;11.886;2024-01-25T17:39:07;12.73;;;3.38;;
27424;SDS011;15244;49.088;11.886;2024-01-25T17:44:09;15.85;;;3.50;;
27424;SDS011;15244;49.088;11.886;2024-01-25T17:49:16;14.82;;;4.07;;
27424;SDS011;15244;49.088;11.886;2024-01-25T17:54:20;13.07;;;4.00;;
27424;SDS011;15244;49.088;11.886;2024-01-25T17:59:25;16.17;;;3.80;;
27424;SDS011;15244;49.088;11.886;2024-01-25T18:04:29;14.88;;;3.67;;
27424;SDS011;15244;49.088;11.886;2024-01-25T18:09:30;19.00;;;4.50;;
27424;SDS011;15244;49.088;11.886;2024-01-25T18:14:32;18.30;;;4.03;;
27424;SDS011;15244;49.088;11.886;2024-01-25T18:19:34;17.70;;;4.05;;
27424;SDS011;15244;49.088;11.886;2024-01-25T18:24:38;12.10;;;3.60;;
27424;SDS011;15244;49.088;11.886;2024-01-25T18:29:40;15.35;;;3.50;;
27424;SDS011;15244;49.088;11.886;2024-01-25T18:34:44;13.05;;;3.88;;
27424;SDS011;15244;49.088;11.886;2024-01-25T18:39:46;17.02;;;4.35;;
27424;SDS011;15244;49.088;11.886;2024-01-25T18:44:50;19.88;;;4.35;;
27424;SDS011;15244;49.088;11.886;2024-01-25T18:49:52;23.50;;;7.03;;
27424;SDS011;15244;49.088;11.886;2024-01-25T18:54:54;15.75;;;6.07;;
27424;SDS011;15244;49.088;11.886;2024-01-25T18:59:56;20.55;;;5.25;;
27424;SDS011;15244;49.088;11.886;2024-01-25T19:05:01;16.50;;;4.53;;
27424;SDS011;15244;49.088;11.886;2024-01-25T19:10:06;24.80;;;5.03;;
27424;SDS011;15244;49.088;11.886;2024-01-25T19:15:11;20.42;;;4.90;;
27424;SDS011;15244;49.088;11.886;2024-01-25T19:20:15;15.98;;;4.60;;
27424;SDS011;15244;49.088;11.886;2024-01-25T19:25:20;25.23;;;7.70;;
27424;SDS011;15244;49.088;11.886;2024-01-25T19:30:24;20.60;;;8.13;;
27424;SDS011;15244;49.088;11.886;2024-01-25T19:35:25;19.80;;;7.82;;
27424;SDS011;15244;49.088;11.886;2024-01-25T19:40:29;25.33;;;9.45;;
27424;SDS011;15244;49.088;11.886;2024-01-25T19:45:37;25.60;;;9.67;;
27424;SDS011;15244;49.088;11.886;2024-01-25T19:50:40;24.35;;;10.82;;
27424;SDS011;15244;49.088;11.886;2024-01-25T19:55:44;24.63;;;8.13;;
27424;SDS011;15244;49.088;11.886;2024-01-25T20:00:48;21.38;;;8.90;;
27424;SDS011;15244;49.088;11.886;2024-01-25T20:05:52;18.00;;;9.35;;
27424;SDS011;15244;49.088;11.886;2024-01-25T20:10:54;24.90;;;9.93;;
27424;SDS011;15244;49.088;11.886;2024-01-25T20:15:55;53.10;;;22.15;;
27424;SDS011;15244;49.088;11.886;2024-01-25T20:20:57;29.23;;;9.48;;
27424;SDS011;15244;49.088;11.886;2024-01-25T20:26:01;36.03;;;14.52;;
27424;SDS011;15244;49.088;11.886;2024-01-25T20:31:05;78.30;;;32.15;;
27424;SDS011;15244;49.088;11.886;2024-01-25T20:36:07;28.35;;;11.82;;
27424;SDS011;15244;49.088;11.886;2024-01-25T20:41:09;19.88;;;7.70;;
27424;SDS011;15244;49.088;11.886;2024-01-25T20:46:16;16.43;;;7.17;;
27424;SDS011;15244;49.088;11.886;2024-01-25T20:51:22;22.95;;;8.13;;
27424;SDS011;15244;49.088;11.886;2024-01-25T20:56:24;25.25;;;7.50;;
27424;SDS011;15244;49.088;11.886;2024-01-25T21:01:25;19.65;;;6.75;;
27424;SDS011;15244;49.088;11.886;2024-01-25T21:06:27;15.93;;;5.20;;
27424;SDS011;15244;49.088;11.886;2024-01-25T21:11:29;19.08;;;4.50;;
27424;SDS011;15244;49.088;11.886;2024-01-25T21:16:33;15.88;;;5.10;;
27424;SDS011;15244;49.088;11.886;2024-01-25T21:21:43;18.38;;;4.55;;
27424;SDS011;15244;49.088;11.886;2024-01-25T21:26:45;19.95;;;5.05;;
27424;SDS011;15244;49.088;11.886;2024-01-25T21:31:47;48.20;;;24.05;;
27424;SDS011;15244;49.088;11.886;2024-01-25T21:36:48;22.98;;;8.15;;
27424;SDS011;15244;49.088;11.886;2024-01-25T21:41:50;25.27;;;9.43;;
27424;SDS011;15244;49.088;11.886;2024-01-25T21:46:55;24.73;;;7.78;;
27424;SDS011;15244;49.088;11.886;2024-01-25T21:57:05;17.42;;;5.57;;
27424;SDS011;15244;49.088;11.886;2024-01-25T22:02:07;18.50;;;5.75;;
27424;SDS011;15244;49.088;11.886;2024-01-25T22:07:11;18.17;;;5.38;;
27424;SDS011;15244;49.088;11.886;2024-01-25T22:12:15;13.57;;;5.28;;
27424;SDS011;15244;49.088;11.886;2024-01-25T22:17:19;20.05;;;5.65;;
27424;SDS011;15244;49.088;11.886;2024-01-25T22:22:24;20.27;;;6.70;;
27424;SDS011;15244;49.088;11.886;2024-01-25T22:27:28;24.17;;;9.82;;
27424;SDS011;15244;49.088;11.886;2024-01-25T22:32:30;33.20;;;12.32;;
27424;SDS011;15244;49.088;11.886;2024-01-25T22:37:32;24.02;;;7.15;;
27424;SDS011;15244;49.088;11.886;2024-01-25T22:42:33;31.75;;;11.07;;
27424;SDS011;15244;49.088;11.886;2024-01-25T22:47:39;37.35;;;13.32;;
27424;SDS011;15244;49.088;11.886;2024-01-25T22:52:41;25.67;;;8.77;;
27424;SDS011;15244;49.088;11.886;2024-01-25T22:57:43;22.08;;;7.45;;
27424;SDS011;15244;49.088;11.886;2024-01-25T23:02:48;19.52;;;6.55;;
27424;SDS011;15244;49.088;11.886;2024-01-25T23:07:53;19.58;;;6.05;;
27424;SDS011;15244;49.088;11.886;2024-01-25T23:12:56;15.65;;;5.88;;
27424;SDS011;15244;49.088;11.886;2024-01-25T23:18:03;14.77;;;6.53;;
27424;SDS011;15244;49.088;11.886;2024-01-25T23:23:05;16.00;;;7.05;;
27424;SDS011;15244;49.088;11.886;2024-01-25T23:28:07;25.35;;;6.30;;
27424;SDS011;15244;49.088;11.886;2024-01-25T23:33:11;21.48;;;6.25;;
27424;SDS011;15244;49.088;11.886;2024-01-25T23:38:19;19.83;;;6.57;;
27424;SDS011;15244;49.088;11.886;2024-01-25T23:43:20;20.50;;;6.57;;
27424;SDS011;15244;49.088;11.886;2024-01-25T23:48:22;14.63;;;5.55;;
27424;SDS011;15244;49.088;11.886;2024-01-25T23:53:25;18.77;;;5.60;;
27424;SDS011;15244;49.088;11.886;2024-01-25T23:58:29;18.77;;;5.50;;
